sensor_id;sensor_type;location;lat;lon;timestamp;P1;P2;P0
80643;PMS5003;70010;60.224;24.712;2023-08-08T00:00:54;21;21;
80643;PMS5003;70010;60.224;24.712;2023-08-08T00:03:20;28;26;
80643;PMS5003;70010;60.224;24.712;2023-08-08T00:05:45;22;21;
80643;PMS5003;70010;60.224;24.712;2023-08-08T00:08:10;19;19;
80643;PMS5003;70010;60.224;24.712;2023-08-08T00:10:36;23;22;
80643;PMS5003;70010;60.224;24.712;2023-08-08T00:13:02;25;25;
80643;PMS5003;70010;60.224;24.712;2023-08-08T00:15:27;20;17;
80643;PMS5003;70010;60.224;24.712;2023-08-08T00:17:53;21;20;
80643;PMS5003;70010;60.224;24.712;2023-08-08T00:20:18;22;20;
80643;PMS5003;70010;60.224;24.712;2023-08-08T00:22:44;21;21;
80643;PMS5003;70010;60.224;24.712;2023-08-08T00:25:09;24;20;
80643;PMS5003;70010;60.224;24.712;2023-08-08T00:27:35;20;20;
80643;PMS5003;70010;60.224;24.712;2023-08-08T00:30:00;21;21;
80643;PMS5003;70010;60.224;24.712;2023-08-08T00:32:26;21;20;
80643;PMS5003;70010;60.224;24.712;2023-08-08T00:34:51;22;21;
80643;PMS5003;70010;60.224;24.712;2023-08-08T00:37:17;22;22;
80643;PMS5003;70010;60.224;24.712;2023-08-08T00:39:42;26;23;
80643;PMS5003;70010;60.224;24.712;2023-08-08T00:42:08;18;18;
80643;PMS5003;70010;60.224;24.712;2023-08-08T00:44:33;19;18;
80643;PMS5003;70010;60.224;24.712;2023-08-08T00:46:59;16;16;
80643;PMS5003;70010;60.224;24.712;2023-08-08T00:49:25;17;16;
80643;PMS5003;70010;60.224;24.712;2023-08-08T00:51:51;21;19;
80643;PMS5003;70010;60.224;24.712;2023-08-08T00:54:16;22;21;
80643;PMS5003;70010;60.224;24.712;2023-08-08T00:56:41;20;19;
80643;PMS5003;70010;60.224;24.712;2023-08-08T00:59:07;20;18;
80643;PMS5003;70010;60.224;24.712;2023-08-08T01:01:32;20;20;
80643;PMS5003;70010;60.224;24.712;2023-08-08T01:03:57;19;17;
80643;PMS5003;70010;60.224;24.712;2023-08-08T01:06:23;19;19;
80643;PMS5003;70010;60.224;24.712;2023-08-08T01:08:49;27;27;
80643;PMS5003;70010;60.224;24.712;2023-08-08T01:11:13;18;18;
80643;PMS5003;70010;60.224;24.712;2023-08-08T01:13:38;16;16;
80643;PMS5003;70010;60.224;24.712;2023-08-08T01:16:04;19;17;
80643;PMS5003;70010;60.224;24.712;2023-08-08T01:18:29;17;17;
80643;PMS5003;70010;60.224;24.712;2023-08-08T01:20:55;22;19;
80643;PMS5003;70010;60.224;24.712;2023-08-08T01:23:23;18;17;
80643;PMS5003;70010;60.224;24.712;2023-08-08T01:25:46;21;21;
80643;PMS5003;70010;60.224;24.712;2023-08-08T01:28:12;19;19;
80643;PMS5003;70010;60.224;24.712;2023-08-08T01:30:37;18;17;
80643;PMS5003;70010;60.224;24.712;2023-08-08T01:33:03;21;21;
80643;PMS5003;70010;60.224;24.712;2023-08-08T01:35:28;18;17;
80643;PMS5003;70010;60.224;24.712;2023-08-08T01:37:54;14;14;
80643;PMS5003;70010;60.224;24.712;2023-08-08T01:40:18;18;16;
80643;PMS5003;70010;60.224;24.712;2023-08-08T01:42:43;18;18;
80643;PMS5003;70010;60.224;24.712;2023-08-08T01:45:09;23;18;
80643;PMS5003;70010;60.224;24.712;2023-08-08T01:47:34;20;20;
80643;PMS5003;70010;60.224;24.712;2023-08-08T01:49:59;19;19;
80643;PMS5003;70010;60.224;24.712;2023-08-08T01:52:24;20;18;
80643;PMS5003;70010;60.224;24.712;2023-08-08T01:54:50;23;23;
80643;PMS5003;70010;60.224;24.712;2023-08-08T01:57:15;15;14;
80643;PMS5003;70010;60.224;24.712;2023-08-08T01:59:41;22;19;
80643;PMS5003;70010;60.224;24.712;2023-08-08T02:02:06;14;14;
80643;PMS5003;70010;60.224;24.712;2023-08-08T02:04:32;16;16;
80643;PMS5003;70010;60.224;24.712;2023-08-08T02:06:57;21;19;
80643;PMS5003;70010;60.224;24.712;2023-08-08T02:09:23;19;19;
80643;PMS5003;70010;60.224;24.712;2023-08-08T02:11:49;22;21;
80643;PMS5003;70010;60.224;24.712;2023-08-08T02:14:14;24;22;
80643;PMS5003;70010;60.224;24.712;2023-08-08T02:16:40;25;24;
80643;PMS5003;70010;60.224;24.712;2023-08-08T02:19:06;19;17;
80643;PMS5003;70010;60.224;24.712;2023-08-08T02:21:31;24;24;
80643;PMS5003;70010;60.224;24.712;2023-08-08T02:23:57;19;16;
80643;PMS5003;70010;60.224;24.712;2023-08-08T02:26:22;25;24;
80643;PMS5003;70010;60.224;24.712;2023-08-08T02:28:48;16;16;
80643;PMS5003;70010;60.224;24.712;2023-08-08T02:31:13;18;18;
80643;PMS5003;70010;60.224;24.712;2023-08-08T02:33:38;19;19;
80643;PMS5003;70010;60.224;24.712;2023-08-08T02:36:04;22;21;
80643;PMS5003;70010;60.224;24.712;2023-08-08T02:38:29;22;22;
80643;PMS5003;70010;60.224;24.712;2023-08-08T02:40:55;16;14;
80643;PMS5003;70010;60.224;24.712;2023-08-08T02:43:21;20;20;
80643;PMS5003;70010;60.224;24.712;2023-08-08T02:45:46;22;17;
80643;PMS5003;70010;60.224;24.712;2023-08-08T02:48:11;19;19;
80643;PMS5003;70010;60.224;24.712;2023-08-08T02:50:36;20;20;
80643;PMS5003;70010;60.224;24.712;2023-08-08T02:53:02;22;20;
80643;PMS5003;70010;60.224;24.712;2023-08-08T02:55:27;21;18;
80643;PMS5003;70010;60.224;24.712;2023-08-08T02:57:53;18;18;
80643;PMS5003;70010;60.224;24.712;2023-08-08T03:00:18;19;19;
80643;PMS5003;70010;60.224;24.712;2023-08-08T03:02:44;19;18;
80643;PMS5003;70010;60.224;24.712;2023-08-08T03:05:09;17;16;
80643;PMS5003;70010;60.224;24.712;2023-08-08T03:07:35;19;17;
80643;PMS5003;70010;60.224;24.712;2023-08-08T03:10:00;20;20;
80643;PMS5003;70010;60.224;24.712;2023-08-08T03:12:25;18;17;
80643;PMS5003;70010;60.224;24.712;2023-08-08T03:14:51;21;20;
80643;PMS5003;70010;60.224;24.712;2023-08-08T03:17:16;16;16;
80643;PMS5003;70010;60.224;24.712;2023-08-08T03:19:43;18;18;
80643;PMS5003;70010;60.224;24.712;2023-08-08T03:22:08;18;18;
80643;PMS5003;70010;60.224;24.712;2023-08-08T03:24:33;15;15;
80643;PMS5003;70010;60.224;24.712;2023-08-08T03:26:58;19;17;
80643;PMS5003;70010;60.224;24.712;2023-08-08T03:29:24;18;17;
80643;PMS5003;70010;60.224;24.712;2023-08-08T03:31:49;17;15;
80643;PMS5003;70010;60.224;24.712;2023-08-08T03:34:15;14;14;
80643;PMS5003;70010;60.224;24.712;2023-08-08T03:36:40;13;13;
80643;PMS5003;70010;60.224;24.712;2023-08-08T03:39:05;19;17;
80643;PMS5003;70010;60.224;24.712;2023-08-08T03:41:30;14;14;
80643;PMS5003;70010;60.224;24.712;2023-08-08T03:43:55;16;15;
80643;PMS5003;70010;60.224;24.712;2023-08-08T03:46:21;15;14;
80643;PMS5003;70010;60.224;24.712;2023-08-08T03:48:46;13;12;
80643;PMS5003;70010;60.224;24.712;2023-08-08T03:51:11;16;16;
80643;PMS5003;70010;60.224;24.712;2023-08-08T03:53:37;20;18;
80643;PMS5003;70010;60.224;24.712;2023-08-08T03:56:02;13;13;
80643;PMS5003;70010;60.224;24.712;2023-08-08T03:58:28;15;13;
80643;PMS5003;70010;60.224;24.712;2023-08-08T04:00:53;13;13;
80643;PMS5003;70010;60.224;24.712;2023-08-08T04:03:18;17;17;
80643;PMS5003;70010;60.224;24.712;2023-08-08T04:05:44;15;14;
80643;PMS5003;70010;60.224;24.712;2023-08-08T04:08:09;18;18;
80643;PMS5003;70010;60.224;24.712;2023-08-08T04:10:35;10;10;
80643;PMS5003;70010;60.224;24.712;2023-08-08T04:13:00;12;12;
80643;PMS5003;70010;60.224;24.712;2023-08-08T04:15:25;14;11;
80643;PMS5003;70010;60.224;24.712;2023-08-08T04:17:51;14;13;
80643;PMS5003;70010;60.224;24.712;2023-08-08T04:20:16;10;10;
80643;PMS5003;70010;60.224;24.712;2023-08-08T04:22:41;9;9;
80643;PMS5003;70010;60.224;24.712;2023-08-08T04:25:07;13;11;
80643;PMS5003;70010;60.224;24.712;2023-08-08T04:27:32;12;12;
80643;PMS5003;70010;60.224;24.712;2023-08-08T04:29:57;11;11;
80643;PMS5003;70010;60.224;24.712;2023-08-08T04:32:23;13;11;
80643;PMS5003;70010;60.224;24.712;2023-08-08T04:34:49;11;10;
80643;PMS5003;70010;60.224;24.712;2023-08-08T04:37:14;14;12;
80643;PMS5003;70010;60.224;24.712;2023-08-08T04:39:39;12;12;
80643;PMS5003;70010;60.224;24.712;2023-08-08T04:42:05;10;10;
80643;PMS5003;70010;60.224;24.712;2023-08-08T04:44:30;10;10;
80643;PMS5003;70010;60.224;24.712;2023-08-08T04:46:55;9;8;
80643;PMS5003;70010;60.224;24.712;2023-08-08T04:49:21;8;8;
80643;PMS5003;70010;60.224;24.712;2023-08-08T04:51:46;12;12;
80643;PMS5003;70010;60.224;24.712;2023-08-08T04:54:12;9;9;
80643;PMS5003;70010;60.224;24.712;2023-08-08T04:56:37;13;12;
80643;PMS5003;70010;60.224;24.712;2023-08-08T04:59:02;9;8;
80643;PMS5003;70010;60.224;24.712;2023-08-08T05:01:27;9;9;
80643;PMS5003;70010;60.224;24.712;2023-08-08T05:03:53;7;7;
80643;PMS5003;70010;60.224;24.712;2023-08-08T05:06:18;9;9;
80643;PMS5003;70010;60.224;24.712;2023-08-08T05:08:43;6;6;
80643;PMS5003;70010;60.224;24.712;2023-08-08T05:11:08;7;7;
80643;PMS5003;70010;60.224;24.712;2023-08-08T05:13:34;8;6;
80643;PMS5003;70010;60.224;24.712;2023-08-08T05:15:59;10;8;
80643;PMS5003;70010;60.224;24.712;2023-08-08T05:18:24;9;8;
80643;PMS5003;70010;60.224;24.712;2023-08-08T05:20:50;9;7;
80643;PMS5003;70010;60.224;24.712;2023-08-08T05:23:15;7;7;
80643;PMS5003;70010;60.224;24.712;2023-08-08T05:25:41;7;7;
80643;PMS5003;70010;60.224;24.712;2023-08-08T05:28:06;9;7;
80643;PMS5003;70010;60.224;24.712;2023-08-08T05:30:32;7;7;
80643;PMS5003;70010;60.224;24.712;2023-08-08T05:32:57;8;7;
80643;PMS5003;70010;60.224;24.712;2023-08-08T05:35:23;8;7;
80643;PMS5003;70010;60.224;24.712;2023-08-08T05:37:48;8;5;
80643;PMS5003;70010;60.224;24.712;2023-08-08T05:40:13;6;6;
80643;PMS5003;70010;60.224;24.712;2023-08-08T05:42:38;6;4;
80643;PMS5003;70010;60.224;24.712;2023-08-08T05:45:04;6;6;
80643;PMS5003;70010;60.224;24.712;2023-08-08T05:47:29;9;9;
80643;PMS5003;70010;60.224;24.712;2023-08-08T05:49:54;11;7;
80643;PMS5003;70010;60.224;24.712;2023-08-08T05:52:20;8;7;
80643;PMS5003;70010;60.224;24.712;2023-08-08T05:54:46;8;8;
80643;PMS5003;70010;60.224;24.712;2023-08-08T05:57:11;5;5;
80643;PMS5003;70010;60.224;24.712;2023-08-08T05:59:36;10;9;
80643;PMS5003;70010;60.224;24.712;2023-08-08T06:02:01;10;8;
80643;PMS5003;70010;60.224;24.712;2023-08-08T06:04:26;8;7;
80643;PMS5003;70010;60.224;24.712;2023-08-08T06:06:52;9;8;
80643;PMS5003;70010;60.224;24.712;2023-08-08T06:09:17;5;5;
80643;PMS5003;70010;60.224;24.712;2023-08-08T06:11:42;9;7;
80643;PMS5003;70010;60.224;24.712;2023-08-08T06:14:08;3;3;
80643;PMS5003;70010;60.224;24.712;2023-08-08T06:16:33;4;3;
80643;PMS5003;70010;60.224;24.712;2023-08-08T06:18:58;2;2;
80643;PMS5003;70010;60.224;24.712;2023-08-08T06:21:23;1;0;
80643;PMS5003;70010;60.224;24.712;2023-08-08T06:23:48;0;0;
80643;PMS5003;70010;60.224;24.712;2023-08-08T06:26:14;0;0;
80643;PMS5003;70010;60.224;24.712;2023-08-08T06:28:39;1;0;
80643;PMS5003;70010;60.224;24.712;2023-08-08T06:31:04;0;0;
80643;PMS5003;70010;60.224;24.712;2023-08-08T06:33:29;0;0;
80643;PMS5003;70010;60.224;24.712;2023-08-08T06:35:55;1;0;
80643;PMS5003;70010;60.224;24.712;2023-08-08T06:38:20;0;0;
80643;PMS5003;70010;60.224;24.712;2023-08-08T06:40:45;0;0;
80643;PMS5003;70010;60.224;24.712;2023-08-08T06:43:10;0;0;
80643;PMS5003;70010;60.224;24.712;2023-08-08T06:45:35;0;0;
80643;PMS5003;70010;60.224;24.712;2023-08-08T06:48:00;0;0;
80643;PMS5003;70010;60.224;24.712;2023-08-08T06:50:26;0;0;
80643;PMS5003;70010;60.224;24.712;2023-08-08T06:52:51;1;1;
80643;PMS5003;70010;60.224;24.712;2023-08-08T06:55:16;1;1;
80643;PMS5003;70010;60.224;24.712;2023-08-08T06:57:41;7;4;
80643;PMS5003;70010;60.224;24.712;2023-08-08T07:00:07;0;0;
80643;PMS5003;70010;60.224;24.712;2023-08-08T07:02:32;2;0;
80643;PMS5003;70010;60.224;24.712;2023-08-08T07:04:57;0;0;
80643;PMS5003;70010;60.224;24.712;2023-08-08T07:07:22;1;0;
80643;PMS5003;70010;60.224;24.712;2023-08-08T07:09:47;4;0;
80643;PMS5003;70010;60.224;24.712;2023-08-08T07:12:13;1;0;
80643;PMS5003;70010;60.224;24.712;2023-08-08T07:14:38;0;0;
80643;PMS5003;70010;60.224;24.712;2023-08-08T07:17:03;1;1;
80643;PMS5003;70010;60.224;24.712;2023-08-08T07:19:28;1;1;
80643;PMS5003;70010;60.224;24.712;2023-08-08T07:21:53;2;0;
80643;PMS5003;70010;60.224;24.712;2023-08-08T07:24:19;0;0;
80643;PMS5003;70010;60.224;24.712;2023-08-08T07:26:44;0;0;
80643;PMS5003;70010;60.224;24.712;2023-08-08T07:29:09;1;0;
80643;PMS5003;70010;60.224;24.712;2023-08-08T07:31:34;0;0;
80643;PMS5003;70010;60.224;24.712;2023-08-08T07:34:00;0;0;
80643;PMS5003;70010;60.224;24.712;2023-08-08T07:36:25;1;0;
80643;PMS5003;70010;60.224;24.712;2023-08-08T07:38:50;1;1;
80643;PMS5003;70010;60.224;24.712;2023-08-08T07:41:15;0;0;
80643;PMS5003;70010;60.224;24.712;2023-08-08T07:43:40;0;0;
80643;PMS5003;70010;60.224;24.712;2023-08-08T07:46:06;1;1;
80643;PMS5003;70010;60.224;24.712;2023-08-08T07:48:31;0;0;
80643;PMS5003;70010;60.224;24.712;2023-08-08T07:50:56;1;1;
80643;PMS5003;70010;60.224;24.712;2023-08-08T07:53:21;0;0;
80643;PMS5003;70010;60.224;24.712;2023-08-08T07:55:46;0;0;
80643;PMS5003;70010;60.224;24.712;2023-08-08T07:58:12;0;0;
80643;PMS5003;70010;60.224;24.712;2023-08-08T08:00:37;5;5;
80643;PMS5003;70010;60.224;24.712;2023-08-08T08:03:03;2;2;
80643;PMS5003;70010;60.224;24.712;2023-08-08T08:05:28;0;0;
80643;PMS5003;70010;60.224;24.712;2023-08-08T08:07:53;0;0;
80643;PMS5003;70010;60.224;24.712;2023-08-08T08:10:18;3;1;
80643;PMS5003;70010;60.224;24.712;2023-08-08T08:12:43;1;1;
80643;PMS5003;70010;60.224;24.712;2023-08-08T08:15:09;2;0;
80643;PMS5003;70010;60.224;24.712;2023-08-08T08:17:35;1;1;
80643;PMS5003;70010;60.224;24.712;2023-08-08T08:20:01;1;1;
80643;PMS5003;70010;60.224;24.712;2023-08-08T08:22:26;3;0;
80643;PMS5003;70010;60.224;24.712;2023-08-08T08:24:51;0;0;
80643;PMS5003;70010;60.224;24.712;2023-08-08T08:27:17;2;1;
80643;PMS5003;70010;60.224;24.712;2023-08-08T08:29:42;1;1;
80643;PMS5003;70010;60.224;24.712;2023-08-08T08:32:07;1;1;
80643;PMS5003;70010;60.224;24.712;2023-08-08T08:34:32;1;0;
80643;PMS5003;70010;60.224;24.712;2023-08-08T08:36:57;1;1;
80643;PMS5003;70010;60.224;24.712;2023-08-08T08:39:22;1;1;
80643;PMS5003;70010;60.224;24.712;2023-08-08T08:41:48;0;0;
80643;PMS5003;70010;60.224;24.712;2023-08-08T08:44:13;1;0;
80643;PMS5003;70010;60.224;24.712;2023-08-08T08:46:38;0;0;
80643;PMS5003;70010;60.224;24.712;2023-08-08T08:49:03;0;0;
80643;PMS5003;70010;60.224;24.712;2023-08-08T08:51:28;2;0;
80643;PMS5003;70010;60.224;24.712;2023-08-08T08:53:54;1;1;
80643;PMS5003;70010;60.224;24.712;2023-08-08T08:56:19;1;0;
80643;PMS5003;70010;60.224;24.712;2023-08-08T08:58:44;1;1;
80643;PMS5003;70010;60.224;24.712;2023-08-08T09:01:09;1;1;
80643;PMS5003;70010;60.224;24.712;2023-08-08T09:03:34;0;0;
80643;PMS5003;70010;60.224;24.712;2023-08-08T09:06:00;0;0;
80643;PMS5003;70010;60.224;24.712;2023-08-08T09:08:25;0;0;
80643;PMS5003;70010;60.224;24.712;2023-08-08T09:10:50;1;0;
80643;PMS5003;70010;60.224;24.712;2023-08-08T09:13:15;1;1;
80643;PMS5003;70010;60.224;24.712;2023-08-08T09:15:40;0;0;
80643;PMS5003;70010;60.224;24.712;2023-08-08T09:18:06;0;0;
80643;PMS5003;70010;60.224;24.712;2023-08-08T09:20:31;1;1;
80643;PMS5003;70010;60.224;24.712;2023-08-08T09:22:56;1;1;
80643;PMS5003;70010;60.224;24.712;2023-08-08T09:25:21;0;0;
80643;PMS5003;70010;60.224;24.712;2023-08-08T09:27:46;1;1;
80643;PMS5003;70010;60.224;24.712;2023-08-08T09:30:12;2;1;
80643;PMS5003;70010;60.224;24.712;2023-08-08T09:32:37;0;0;
80643;PMS5003;70010;60.224;24.712;2023-08-08T09:35:02;1;1;
80643;PMS5003;70010;60.224;24.712;2023-08-08T09:37:28;1;1;
80643;PMS5003;70010;60.224;24.712;2023-08-08T09:39:56;0;0;
80643;PMS5003;70010;60.224;24.712;2023-08-08T09:42:18;1;1;
80643;PMS5003;70010;60.224;24.712;2023-08-08T09:44:43;1;1;
80643;PMS5003;70010;60.224;24.712;2023-08-08T09:47:11;0;0;
80643;PMS5003;70010;60.224;24.712;2023-08-08T09:49:33;2;0;
80643;PMS5003;70010;60.224;24.712;2023-08-08T09:51:58;1;1;
80643;PMS5003;70010;60.224;24.712;2023-08-08T09:54:23;0;0;
80643;PMS5003;70010;60.224;24.712;2023-08-08T09:56:49;2;1;
80643;PMS5003;70010;60.224;24.712;2023-08-08T09:59:14;1;1;
80643;PMS5003;70010;60.224;24.712;2023-08-08T10:01:40;2;2;
80643;PMS5003;70010;60.224;24.712;2023-08-08T10:04:04;1;1;
80643;PMS5003;70010;60.224;24.712;2023-08-08T10:06:29;0;0;
80643;PMS5003;70010;60.224;24.712;2023-08-08T10:08:55;1;1;
80643;PMS5003;70010;60.224;24.712;2023-08-08T10:11:20;1;1;
80643;PMS5003;70010;60.224;24.712;2023-08-08T10:13:47;1;1;
80643;PMS5003;70010;60.224;24.712;2023-08-08T10:16:10;1;1;
80643;PMS5003;70010;60.224;24.712;2023-08-08T10:18:35;0;0;
80643;PMS5003;70010;60.224;24.712;2023-08-08T10:21:03;1;1;
80643;PMS5003;70010;60.224;24.712;2023-08-08T10:23:26;0;0;
80643;PMS5003;70010;60.224;24.712;2023-08-08T10:25:51;1;1;
80643;PMS5003;70010;60.224;24.712;2023-08-08T10:28:18;0;0;
80643;PMS5003;70010;60.224;24.712;2023-08-08T10:30:42;1;1;
80643;PMS5003;70010;60.224;24.712;2023-08-08T10:33:07;2;2;
80643;PMS5003;70010;60.224;24.712;2023-08-08T10:35:34;1;1;
80643;PMS5003;70010;60.224;24.712;2023-08-08T10:37:57;1;1;
80643;PMS5003;70010;60.224;24.712;2023-08-08T10:40:23;0;0;
80643;PMS5003;70010;60.224;24.712;2023-08-08T10:42:47;1;1;
80643;PMS5003;70010;60.224;24.712;2023-08-08T10:45:13;1;1;
80643;PMS5003;70010;60.224;24.712;2023-08-08T10:47:38;1;1;
80643;PMS5003;70010;60.224;24.712;2023-08-08T10:50:04;2;2;
80643;PMS5003;70010;60.224;24.712;2023-08-08T10:52:28;3;2;
80643;PMS5003;70010;60.224;24.712;2023-08-08T10:54:53;1;1;
80643;PMS5003;70010;60.224;24.712;2023-08-08T10:57:19;1;1;
80643;PMS5003;70010;60.224;24.712;2023-08-08T10:59:44;0;0;
80643;PMS5003;70010;60.224;24.712;2023-08-08T11:02:09;1;1;
80643;PMS5003;70010;60.224;24.712;2023-08-08T11:04:34;0;0;
80643;PMS5003;70010;60.224;24.712;2023-08-08T11:07:00;1;1;
80643;PMS5003;70010;60.224;24.712;2023-08-08T11:09:25;2;2;
80643;PMS5003;70010;60.224;24.712;2023-08-08T11:11:50;1;1;
80643;PMS5003;70010;60.224;24.712;2023-08-08T11:14:16;3;2;
80643;PMS5003;70010;60.224;24.712;2023-08-08T11:16:40;3;1;
80643;PMS5003;70010;60.224;24.712;2023-08-08T11:19:06;1;1;
80643;PMS5003;70010;60.224;24.712;2023-08-08T11:21:33;0;0;
80643;PMS5003;70010;60.224;24.712;2023-08-08T11:23:57;2;2;
80643;PMS5003;70010;60.224;24.712;2023-08-08T11:26:21;2;2;
80643;PMS5003;70010;60.224;24.712;2023-08-08T11:28:50;2;2;
80643;PMS5003;70010;60.224;24.712;2023-08-08T11:31:12;2;2;
80643;PMS5003;70010;60.224;24.712;2023-08-08T11:33:38;4;2;
80643;PMS5003;70010;60.224;24.712;2023-08-08T11:36:03;4;2;
80643;PMS5003;70010;60.224;24.712;2023-08-08T11:38:28;2;2;
80643;PMS5003;70010;60.224;24.712;2023-08-08T11:40:54;3;3;
80643;PMS5003;70010;60.224;24.712;2023-08-08T11:43:19;2;2;
80643;PMS5003;70010;60.224;24.712;2023-08-08T11:45:44;1;1;
80643;PMS5003;70010;60.224;24.712;2023-08-08T11:48:09;2;2;
80643;PMS5003;70010;60.224;24.712;2023-08-08T11:50:36;1;1;
80643;PMS5003;70010;60.224;24.712;2023-08-08T11:53:00;1;1;
80643;PMS5003;70010;60.224;24.712;2023-08-08T11:55:28;1;1;
80643;PMS5003;70010;60.224;24.712;2023-08-08T11:57:50;3;2;
80643;PMS5003;70010;60.224;24.712;2023-08-08T12:00:16;2;2;
80643;PMS5003;70010;60.224;24.712;2023-08-08T12:02:41;1;1;
80643;PMS5003;70010;60.224;24.712;2023-08-08T12:05:06;3;2;
80643;PMS5003;70010;60.224;24.712;2023-08-08T12:07:31;1;1;
80643;PMS5003;70010;60.224;24.712;2023-08-08T12:09:56;1;0;
80643;PMS5003;70010;60.224;24.712;2023-08-08T12:12:21;2;0;
80643;PMS5003;70010;60.224;24.712;2023-08-08T12:14:47;2;2;
80643;PMS5003;70010;60.224;24.712;2023-08-08T12:17:12;1;1;
80643;PMS5003;70010;60.224;24.712;2023-08-08T12:19:37;7;3;
80643;PMS5003;70010;60.224;24.712;2023-08-08T12:22:02;2;2;
80643;PMS5003;70010;60.224;24.712;2023-08-08T12:24:27;3;3;
80643;PMS5003;70010;60.224;24.712;2023-08-08T12:26:53;1;1;
80643;PMS5003;70010;60.224;24.712;2023-08-08T12:29:18;3;3;
80643;PMS5003;70010;60.224;24.712;2023-08-08T12:31:43;2;2;
80643;PMS5003;70010;60.224;24.712;2023-08-08T12:34:08;0;0;
80643;PMS5003;70010;60.224;24.712;2023-08-08T12:36:34;1;1;
80643;PMS5003;70010;60.224;24.712;2023-08-08T12:38:59;2;2;
80643;PMS5003;70010;60.224;24.712;2023-08-08T12:41:24;2;2;
80643;PMS5003;70010;60.224;24.712;2023-08-08T12:43:49;2;2;
80643;PMS5003;70010;60.224;24.712;2023-08-08T12:46:14;2;2;
80643;PMS5003;70010;60.224;24.712;2023-08-08T12:48:39;2;2;
80643;PMS5003;70010;60.224;24.712;2023-08-08T12:51:05;2;2;
80643;PMS5003;70010;60.224;24.712;2023-08-08T12:53:30;4;1;
80643;PMS5003;70010;60.224;24.712;2023-08-08T12:55:55;1;1;
80643;PMS5003;70010;60.224;24.712;2023-08-08T12:58:20;2;2;
80643;PMS5003;70010;60.224;24.712;2023-08-08T13:00:45;1;1;
80643;PMS5003;70010;60.224;24.712;2023-08-08T13:03:11;3;3;
80643;PMS5003;70010;60.224;24.712;2023-08-08T13:05:36;2;2;
80643;PMS5003;70010;60.224;24.712;2023-08-08T13:08:01;2;1;
80643;PMS5003;70010;60.224;24.712;2023-08-08T13:10:26;2;2;
80643;PMS5003;70010;60.224;24.712;2023-08-08T13:12:51;3;3;
80643;PMS5003;70010;60.224;24.712;2023-08-08T13:15:17;3;3;
80643;PMS5003;70010;60.224;24.712;2023-08-08T13:17:43;3;3;
80643;PMS5003;70010;60.224;24.712;2023-08-08T13:20:09;3;2;
80643;PMS5003;70010;60.224;24.712;2023-08-08T13:22:33;1;1;
80643;PMS5003;70010;60.224;24.712;2023-08-08T13:24:59;3;3;
80643;PMS5003;70010;60.224;24.712;2023-08-08T13:27:24;2;2;
80643;PMS5003;70010;60.224;24.712;2023-08-08T13:29:49;3;1;
80643;PMS5003;70010;60.224;24.712;2023-08-08T13:32:14;3;2;
80643;PMS5003;70010;60.224;24.712;2023-08-08T13:34:39;2;2;
80643;PMS5003;70010;60.224;24.712;2023-08-08T13:37:05;3;1;
80643;PMS5003;70010;60.224;24.712;2023-08-08T13:39:30;3;3;
80643;PMS5003;70010;60.224;24.712;2023-08-08T13:41:55;2;2;
80643;PMS5003;70010;60.224;24.712;2023-08-08T13:44:20;1;1;
80643;PMS5003;70010;60.224;24.712;2023-08-08T13:46:45;2;2;
80643;PMS5003;70010;60.224;24.712;2023-08-08T13:49:11;1;1;
80643;PMS5003;70010;60.224;24.712;2023-08-08T13:51:36;3;3;
80643;PMS5003;70010;60.224;24.712;2023-08-08T13:54:01;2;2;
80643;PMS5003;70010;60.224;24.712;2023-08-08T13:56:26;5;3;
80643;PMS5003;70010;60.224;24.712;2023-08-08T13:58:51;0;0;
80643;PMS5003;70010;60.224;24.712;2023-08-08T14:01:17;2;2;
80643;PMS5003;70010;60.224;24.712;2023-08-08T14:03:42;4;4;
80643;PMS5003;70010;60.224;24.712;2023-08-08T14:06:07;3;3;
80643;PMS5003;70010;60.224;24.712;2023-08-08T14:08:32;2;2;
80643;PMS5003;70010;60.224;24.712;2023-08-08T14:10:57;2;2;
80643;PMS5003;70010;60.224;24.712;2023-08-08T14:13:23;3;3;
80643;PMS5003;70010;60.224;24.712;2023-08-08T14:15:48;3;1;
80643;PMS5003;70010;60.224;24.712;2023-08-08T14:18:13;3;3;
80643;PMS5003;70010;60.224;24.712;2023-08-08T14:20:38;3;2;
80643;PMS5003;70010;60.224;24.712;2023-08-08T14:23:03;3;3;
80643;PMS5003;70010;60.224;24.712;2023-08-08T14:25:29;3;3;
80643;PMS5003;70010;60.224;24.712;2023-08-08T14:27:54;3;3;
80643;PMS5003;70010;60.224;24.712;2023-08-08T14:30:19;1;1;
80643;PMS5003;70010;60.224;24.712;2023-08-08T14:32:44;1;1;
80643;PMS5003;70010;60.224;24.712;2023-08-08T14:35:09;1;1;
80643;PMS5003;70010;60.224;24.712;2023-08-08T14:37:34;2;2;
80643;PMS5003;70010;60.224;24.712;2023-08-08T14:40:00;1;1;
80643;PMS5003;70010;60.224;24.712;2023-08-08T14:42:25;1;1;
80643;PMS5003;70010;60.224;24.712;2023-08-08T14:44:50;1;1;
80643;PMS5003;70010;60.224;24.712;2023-08-08T14:47:15;2;2;
80643;PMS5003;70010;60.224;24.712;2023-08-08T14:49:40;3;3;
80643;PMS5003;70010;60.224;24.712;2023-08-08T14:52:06;3;3;
80643;PMS5003;70010;60.224;24.712;2023-08-08T14:54:31;1;1;
80643;PMS5003;70010;60.224;24.712;2023-08-08T14:56:56;1;1;
80643;PMS5003;70010;60.224;24.712;2023-08-08T14:59:21;6;2;
80643;PMS5003;70010;60.224;24.712;2023-08-08T15:01:46;3;1;
80643;PMS5003;70010;60.224;24.712;2023-08-08T15:04:12;2;2;
80643;PMS5003;70010;60.224;24.712;2023-08-08T15:06:37;2;2;
80643;PMS5003;70010;60.224;24.712;2023-08-08T15:09:02;4;3;
80643;PMS5003;70010;60.224;24.712;2023-08-08T15:11:27;5;4;
80643;PMS5003;70010;60.224;24.712;2023-08-08T15:13:52;0;0;
80643;PMS5003;70010;60.224;24.712;2023-08-08T15:16:18;4;2;
80643;PMS5003;70010;60.224;24.712;2023-08-08T15:18:43;2;2;
80643;PMS5003;70010;60.224;24.712;2023-08-08T15:21:08;1;1;
80643;PMS5003;70010;60.224;24.712;2023-08-08T15:23:33;3;3;
80643;PMS5003;70010;60.224;24.712;2023-08-08T15:25:58;4;3;
80643;PMS5003;70010;60.224;24.712;2023-08-08T15:28:24;3;1;
80643;PMS5003;70010;60.224;24.712;2023-08-08T15:30:49;1;1;
80643;PMS5003;70010;60.224;24.712;2023-08-08T15:33:14;1;1;
80643;PMS5003;70010;60.224;24.712;2023-08-08T15:35:39;2;2;
80643;PMS5003;70010;60.224;24.712;2023-08-08T15:38:04;4;2;
80643;PMS5003;70010;60.224;24.712;2023-08-08T15:40:30;3;2;
80643;PMS5003;70010;60.224;24.712;2023-08-08T15:42:55;2;2;
80643;PMS5003;70010;60.224;24.712;2023-08-08T15:45:20;3;3;
80643;PMS5003;70010;60.224;24.712;2023-08-08T15:47:45;1;1;
80643;PMS5003;70010;60.224;24.712;2023-08-08T15:50:10;3;3;
80643;PMS5003;70010;60.224;24.712;2023-08-08T15:52:36;2;2;
80643;PMS5003;70010;60.224;24.712;2023-08-08T15:55:01;2;2;
80643;PMS5003;70010;60.224;24.712;2023-08-08T15:57:26;5;3;
80643;PMS5003;70010;60.224;24.712;2023-08-08T15:59:51;5;3;
80643;PMS5003;70010;60.224;24.712;2023-08-08T16:02:17;2;2;
80643;PMS5003;70010;60.224;24.712;2023-08-08T16:04:42;1;1;
80643;PMS5003;70010;60.224;24.712;2023-08-08T16:07:07;3;3;
80643;PMS5003;70010;60.224;24.712;2023-08-08T16:09:32;2;1;